createdAt,value
2023-02-12T00:00:10.576Z,96706.91
2023-02-12T00:02:37.172Z,96701.41
2023-02-12T00:05:03.998Z,96710.91
2023-02-12T00:07:31.296Z,96722.03
2023-02-12T00:09:57.743Z,96717.94
2023-02-12T00:12:27.064Z,96724.94
2023-02-12T00:14:53.534Z,96712.72
2023-02-12T00:17:19.956Z,96721.38
2023-02-12T00:19:47.498Z,96711.06
2023-02-12T00:22:13.913Z,96726.47
2023-02-12T00:24:40.357Z,96722.63
2023-02-12T00:27:06.777Z,96731.16
2023-02-12T00:29:33.217Z,96725.41
2023-02-12T00:31:59.653Z,96722.16
2023-02-12T00:34:26.103Z,96729.56
2023-02-12T00:36:52.516Z,96736.19
2023-02-12T00:39:18.972Z,96733.59
2023-02-12T00:41:45.458Z,96743.75
2023-02-12T00:44:11.986Z,96739.41
2023-02-12T00:46:38.477Z,96732.81
2023-02-12T00:49:04.930Z,96732.41
2023-02-12T00:51:31.332Z,96731.06
2023-02-12T00:53:57.767Z,96737.94
2023-02-12T00:56:24.258Z,96730.66
2023-02-12T00:58:50.931Z,96737.66
2023-02-12T01:01:17.843Z,96737.94
2023-02-12T01:03:44.310Z,96735.06
2023-02-12T01:06:10.758Z,96735.06
2023-02-12T01:08:37.170Z,96723.63
2023-02-12T01:11:04.169Z,96715.41
2023-02-12T01:13:31.141Z,96719.25
2023-02-12T01:16:05.239Z,96726.13
2023-02-12T01:18:31.710Z,96725.03
2023-02-12T01:20:58.981Z,96723.34
2023-02-12T01:23:25.616Z,96725.03
2023-02-12T01:25:52.086Z,96720.63
2023-02-12T01:28:18.527Z,96723.81
2023-02-12T01:30:45.023Z,96726.84
2023-02-12T01:33:11.470Z,96729.16
2023-02-12T01:35:38.396Z,96736.44
2023-02-12T01:38:04.823Z,96733.69
2023-02-12T01:40:31.357Z,96734.25
2023-02-12T01:43:00.324Z,96734.38
2023-02-12T01:45:41.165Z,96737.16
2023-02-12T01:48:07.756Z,96746.06
2023-02-12T01:50:34.640Z,96749.66
2023-02-12T01:53:01.293Z,96749.94
2023-02-12T01:55:27.797Z,96739.19
2023-02-12T01:57:54.309Z,96739.63
2023-02-12T02:00:21.138Z,96764.78
2023-02-12T02:02:51.294Z,96756.00
2023-02-12T02:05:23.122Z,96761.22
2023-02-12T02:07:49.588Z,96767.94
2023-02-12T02:10:16.104Z,96768.22
2023-02-12T02:13:01.066Z,96770.00
2023-02-12T02:15:30.508Z,96766.69
2023-02-12T02:18:02.566Z,96776.06
2023-02-12T02:20:55.334Z,96775.09
2023-02-12T02:23:27.755Z,96780.59
2023-02-12T02:26:06.423Z,96777.84
2023-02-12T02:28:48.074Z,96769.91
2023-02-12T02:31:17.643Z,96772.91
2023-02-12T02:33:44.075Z,96776.50
2023-02-12T02:36:26.229Z,96768.00
2023-02-12T02:38:52.690Z,96770.59
2023-02-12T02:41:28.967Z,96784.22
2023-02-12T02:43:55.543Z,96789.72
2023-02-12T02:46:29.816Z,96791.78
2023-02-12T02:49:04.856Z,96796.59
2023-02-12T02:51:42.318Z,96804.03
2023-02-12T02:54:14.170Z,96807.34
2023-02-12T02:56:44.303Z,96812.28
2023-02-12T02:59:17.149Z,96819.72
2023-02-12T03:01:45.500Z,96839.53
2023-02-12T03:04:21.123Z,96831.41
2023-02-12T03:06:54.604Z,96835.41
2023-02-12T03:09:32.472Z,96835.81
2023-02-12T03:12:01.581Z,96836.50
2023-02-12T03:14:33.203Z,96836.22
2023-02-12T03:17:04.373Z,96848.34
2023-02-12T03:19:37.358Z,96847.25
2023-02-12T03:22:09.576Z,96858.25
2023-02-12T03:24:38.988Z,96855.22
2023-02-12T03:27:25.650Z,96856.75
2023-02-12T03:29:52.567Z,96865.53
2023-02-12T03:32:35.818Z,96868.44
2023-02-12T03:35:05.275Z,96869.44
2023-02-12T03:37:33.854Z,96870.94
2023-02-12T03:40:19.127Z,96876.72
2023-02-12T03:42:45.752Z,96887.19
2023-02-12T03:45:30.647Z,96879.31
2023-02-12T03:47:57.073Z,96901.66
2023-02-12T03:50:32.522Z,96902.59
2023-02-12T03:52:59.094Z,96900.97
2023-02-12T03:55:25.911Z,96907.84
2023-02-12T03:57:55.743Z,96909.81
2023-02-12T04:00:23.963Z,96906.19
2023-02-12T04:02:50.527Z,96906.75
2023-02-12T04:05:24.789Z,96915.31
2023-02-12T04:07:52.425Z,96908.94
2023-02-12T04:10:22.366Z,96927.97
2023-02-12T04:13:15.374Z,96926.88
2023-02-12T04:16:00.481Z,96930.47
2023-02-12T04:18:32.008Z,96932.09
2023-02-12T04:21:08.140Z,96937.06
2023-02-12T04:23:48.582Z,96934.19
2023-02-12T04:26:17.809Z,96942.59
2023-02-12T04:29:08.274Z,96952.50
2023-02-12T04:31:44.184Z,96939.56
2023-02-12T04:34:18.034Z,96955.25
2023-02-12T04:36:56.802Z,96970.97
2023-02-12T04:39:25.831Z,96959.56
2023-02-12T04:41:52.472Z,96982.44
2023-02-12T04:44:24.023Z,96990.28
2023-02-12T04:46:50.677Z,96989.16
2023-02-12T04:49:18.442Z,96984.47
2023-02-12T04:51:45.285Z,96996.88
2023-02-12T04:54:12.161Z,96993.56
2023-02-12T04:56:38.625Z,97016.00
2023-02-12T04:59:05.050Z,97016.00
2023-02-12T05:01:33.371Z,97018.91
2023-02-12T05:03:59.817Z,97049.22
2023-02-12T05:06:26.345Z,97023.03
2023-02-12T05:08:53.705Z,97029.91
2023-02-12T05:11:20.155Z,97043.69
2023-02-12T05:13:50.631Z,97035.97
2023-02-12T05:16:17.789Z,97047.41
2023-02-12T05:18:44.257Z,97058.69
2023-02-12T05:21:11.013Z,97065.59
2023-02-12T05:23:38.643Z,97050.31
2023-02-12T05:26:06.374Z,97078.69
2023-02-12T05:28:32.999Z,97053.59
2023-02-12T05:31:00.965Z,97055.00
2023-02-12T05:33:27.684Z,97069.34
2023-02-12T05:35:55.716Z,97057.91
2023-02-12T05:38:22.507Z,97054.31
2023-02-12T05:40:48.922Z,97063.00
2023-02-12T05:43:15.334Z,97064.22
2023-02-12T05:45:44.239Z,97072.06
2023-02-12T05:48:10.676Z,97074.81
2023-02-12T05:50:37.107Z,97088.88
2023-02-12T05:53:03.608Z,97094.69
2023-02-12T05:55:30.116Z,97090.00
2023-02-12T05:57:56.516Z,97091.38
2023-02-12T06:00:23.057Z,97114.50
2023-02-12T06:02:49.523Z,97112.88
2023-02-12T06:05:15.965Z,97123.59
2023-02-12T06:07:42.546Z,97121.94
2023-02-12T06:10:09.239Z,97132.81
2023-02-12T06:12:35.699Z,97135.44
2023-02-12T06:15:02.128Z,97141.75
2023-02-12T06:17:28.585Z,97138.44
2023-02-12T06:19:55.038Z,97130.31
2023-02-12T06:22:21.476Z,97141.50
2023-02-12T06:24:48.104Z,97146.16
2023-02-12T06:27:14.515Z,97142.19
2023-02-12T06:29:40.959Z,97144.25
2023-02-12T06:32:08.707Z,97149.59
2023-02-12T06:34:35.214Z,97151.00
2023-02-12T06:37:01.645Z,97151.69
2023-02-12T06:39:28.108Z,97155.59
2023-02-12T06:41:54.577Z,97159.28
2023-02-12T06:44:21.036Z,97164.91
2023-02-12T06:46:47.567Z,97174.81
2023-02-12T06:49:14.511Z,97167.91
2023-02-12T06:51:41.469Z,97167.91
2023-02-12T06:54:13.061Z,97179.09
2023-02-12T06:56:39.519Z,97185.03
2023-02-12T06:59:05.984Z,97193.72
2023-02-12T07:01:32.409Z,97200.22
2023-02-12T07:04:02.770Z,97202.28
2023-02-12T07:06:30.101Z,97213.25
2023-02-12T07:08:56.644Z,97221.34
2023-02-12T07:11:26.868Z,97224.38
2023-02-12T07:13:53.342Z,97224.38
2023-02-12T07:16:19.878Z,97222.44
2023-02-12T07:18:46.884Z,97233.03
2023-02-12T07:21:13.884Z,97242.81
2023-02-12T07:23:40.561Z,97240.88
2023-02-12T07:26:08.384Z,97236.63
2023-02-12T07:28:35.375Z,97240.31
2023-02-12T07:31:08.832Z,97244.16
2023-02-12T07:33:35.605Z,97242.25
2023-02-12T07:36:02.705Z,97254.88
2023-02-12T07:38:29.212Z,97247.03
2023-02-12T07:40:58.761Z,97251.56
2023-02-12T07:43:25.248Z,97247.13
2023-02-12T07:45:51.708Z,97259.53
2023-02-12T07:48:18.194Z,97262.28
2023-02-12T07:50:44.609Z,97253.47
2023-02-12T07:53:11.052Z,97249.53
2023-02-12T07:55:37.548Z,97248.59
2023-02-12T07:58:03.965Z,97249.56
2023-02-12T08:00:30.604Z,97250.09
2023-02-12T08:02:57.032Z,97261.50
2023-02-12T08:05:23.445Z,97256.28
2023-02-12T08:07:49.889Z,97266.47
2023-02-12T08:10:16.444Z,97259.47
2023-02-12T08:12:42.891Z,97263.84
2023-02-12T08:15:09.509Z,97269.00
2023-02-12T08:17:35.935Z,97271.72
2023-02-12T08:20:02.413Z,97272.69
2023-02-12T08:22:28.849Z,97278.88
2023-02-12T08:24:55.275Z,97281.38
2023-02-12T08:27:21.700Z,97270.38
2023-02-12T08:29:48.163Z,97279.91
2023-02-12T08:32:16.359Z,97276.00
2023-02-12T08:34:42.864Z,97282.19
2023-02-12T08:37:09.295Z,97277.91
2023-02-12T08:39:35.864Z,97288.66
2023-02-12T08:42:02.323Z,97287.41
2023-02-12T08:44:29.261Z,97284.59
2023-02-12T08:46:55.878Z,97289.84
2023-02-12T08:49:23.567Z,97301.41
2023-02-12T08:51:51.045Z,97301.28
2023-02-12T08:54:18.968Z,97313.50
2023-02-12T08:56:45.814Z,97319.72
2023-02-12T08:59:13.078Z,97312.69
2023-02-12T09:01:41.023Z,97321.75
2023-02-12T09:04:08.417Z,97318.75
2023-02-12T09:06:36.601Z,97321.25
2023-02-12T09:09:03.427Z,97320.97
2023-02-12T09:11:32.845Z,97325.16
2023-02-12T09:14:01.264Z,97337.97
2023-02-12T09:16:28.917Z,97347.84
2023-02-12T09:18:55.460Z,97345.63
2023-02-12T09:21:22.288Z,97346.00
2023-02-12T09:23:49.097Z,97362.78
2023-02-12T09:26:17.620Z,97373.38
2023-02-12T09:28:44.198Z,97367.50
2023-02-12T09:31:14.720Z,97377.97
2023-02-12T09:33:41.669Z,97378.69
2023-02-12T09:36:09.495Z,97380.72
2023-02-12T09:38:36.142Z,97382.88
2023-02-12T09:41:05.630Z,97386.31
2023-02-12T09:43:52.376Z,97377.97
2023-02-12T09:46:28.797Z,97393.44
2023-02-12T09:49:30.853Z,97401.16
2023-02-12T09:51:58.780Z,97387.38
2023-02-12T09:54:28.578Z,97404.97
2023-02-12T09:56:59.350Z,97404.03
2023-02-12T09:59:25.748Z,97408.03
2023-02-12T10:01:52.298Z,97404.94
2023-02-12T10:04:18.785Z,97400.66
2023-02-12T10:07:05.478Z,97409.47
2023-02-12T10:09:45.220Z,97416.59
2023-02-12T10:12:14.494Z,97416.88
2023-02-12T10:14:41.985Z,97410.66
2023-02-12T10:17:17.667Z,97414.59
2023-02-12T10:20:03.026Z,97412.81
2023-02-12T10:22:32.200Z,97411.03
2023-02-12T10:24:58.616Z,97413.78
2023-02-12T10:27:34.787Z,97401.28
2023-02-12T10:30:03.802Z,97411.88
2023-02-12T10:32:33.101Z,97406.38
2023-02-12T10:34:59.882Z,97421.13
2023-02-12T10:37:26.278Z,97417.78
2023-02-12T10:39:56.482Z,97421.38
2023-02-12T10:42:32.373Z,97422.34
2023-02-12T10:44:58.843Z,97418.75
2023-02-12T10:47:26.850Z,97425.91
2023-02-12T10:49:58.133Z,97421.63
2023-02-12T10:52:39.132Z,97429.47
2023-02-12T10:55:23.304Z,97424.72
2023-02-12T10:57:49.749Z,97432.34
2023-02-12T11:00:35.776Z,97426.28
2023-02-12T11:03:05.213Z,97434.97
2023-02-12T11:05:34.887Z,97426.16
2023-02-12T11:08:02.392Z,97432.09
2023-02-12T11:10:31.907Z,97432.31
2023-02-12T11:13:01.623Z,97435.38
2023-02-12T11:15:34.960Z,97429.53
2023-02-12T11:18:05.817Z,97430.00
2023-02-12T11:20:49.016Z,97434.38
2023-02-12T11:23:26.621Z,97440.81
2023-02-12T11:25:58.689Z,97445.34
2023-02-12T11:28:25.732Z,97444.19
2023-02-12T11:30:52.245Z,97447.75
2023-02-12T11:33:30.038Z,97444.19
2023-02-12T11:35:58.691Z,97445.97
2023-02-12T11:38:27.832Z,97438.00
2023-02-12T11:40:57.269Z,97447.75
2023-02-12T11:43:25.061Z,97446.09
2023-02-12T11:45:56.241Z,97442.78
2023-02-12T11:48:22.727Z,97441.72
2023-02-12T11:50:51.228Z,97439.09
2023-02-12T11:53:22.221Z,97433.97
2023-02-12T11:56:07.256Z,97430.41
2023-02-12T11:58:33.967Z,97438.13
2023-02-12T12:01:03.152Z,97440.03
2023-02-12T12:03:37.419Z,97439.78
2023-02-12T12:06:25.484Z,97440.81
2023-02-12T12:08:55.058Z,97446.50
2023-02-12T12:11:27.303Z,97443.91
2023-02-12T12:14:00.528Z,97449.00
2023-02-12T12:17:06.051Z,97448.19
2023-02-12T12:19:52.549Z,97454.50
2023-02-12T12:22:39.254Z,97453.03
2023-02-12T12:25:06.783Z,97449.34
2023-02-12T12:27:55.073Z,97443.28
2023-02-12T12:30:41.754Z,97438.63
2023-02-12T12:33:16.423Z,97441.44
2023-02-12T12:35:48.015Z,97432.75
2023-02-12T12:38:20.342Z,97426.91
2023-02-12T12:40:46.767Z,97427.41
2023-02-12T12:43:20.790Z,97429.31
2023-02-12T12:45:47.274Z,97438.38
2023-02-12T12:48:24.008Z,97441.00
2023-02-12T12:51:08.962Z,97439.78
2023-02-12T12:53:47.070Z,97439.09
2023-02-12T12:56:16.290Z,97442.09
2023-02-12T12:58:54.669Z,97439.13
2023-02-12T13:01:39.963Z,97431.97
2023-02-12T13:04:12.537Z,97439.38
2023-02-12T13:06:54.443Z,97435.34
2023-02-12T13:09:43.806Z,97424.41
2023-02-12T13:12:16.221Z,97440.09
2023-02-12T13:14:42.607Z,97435.72
2023-02-12T13:17:17.904Z,97438.34
2023-02-12T13:19:54.425Z,97434.19
2023-02-12T13:22:26.305Z,97438.72
2023-02-12T13:24:52.832Z,97442.63
2023-02-12T13:27:22.009Z,97441.06
2023-02-12T13:29:50.635Z,97440.47
2023-02-12T13:32:23.911Z,97440.22
2023-02-12T13:34:50.853Z,97432.44
2023-02-12T13:37:19.321Z,97445.25
2023-02-12T13:39:47.764Z,97441.69
2023-02-12T13:42:37.439Z,97441.13
2023-02-12T13:45:19.205Z,97448.84
2023-02-12T13:47:51.701Z,97441.69
2023-02-12T13:50:50.531Z,97449.81
2023-02-12T13:53:21.852Z,97447.69
2023-02-12T13:56:03.606Z,97431.97
2023-02-12T13:58:37.618Z,97442.63
2023-02-12T14:01:05.275Z,97451.34
2023-02-12T14:03:32.000Z,97451.06
2023-02-12T14:06:15.792Z,97455.38
2023-02-12T14:08:44.661Z,97456.22
2023-02-12T14:11:31.326Z,97470.63
2023-02-12T14:14:00.162Z,97467.31
2023-02-12T14:16:29.689Z,97466.47
2023-02-12T14:19:14.668Z,97468.03
2023-02-12T14:21:41.437Z,97474.38
2023-02-12T14:24:26.589Z,97479.28
2023-02-12T14:26:53.142Z,97485.81
2023-02-12T14:29:24.406Z,97482.75
2023-02-12T14:31:51.101Z,97480.84
2023-02-12T14:34:18.124Z,97484.69
2023-02-12T14:36:45.751Z,97479.44
2023-02-12T14:39:22.034Z,97477.97
2023-02-12T14:41:55.454Z,97479.78
2023-02-12T14:44:23.311Z,97477.97
2023-02-12T14:47:00.497Z,97471.81
2023-02-12T14:49:32.763Z,97465.03
2023-02-12T14:52:02.279Z,97471.81
2023-02-12T14:54:31.830Z,97472.28
2023-02-12T14:57:01.589Z,97468.69
2023-02-12T14:59:31.674Z,97467.78
2023-02-12T15:02:00.727Z,97475.88
2023-02-12T15:04:28.881Z,97475.63
2023-02-12T15:06:57.885Z,97485.63
2023-02-12T15:09:56.900Z,97475.00
2023-02-12T15:12:26.707Z,97478.91
2023-02-12T15:15:02.016Z,97477.00
2023-02-12T15:17:31.049Z,97484.84
2023-02-12T15:19:58.181Z,97484.84
2023-02-12T15:22:29.540Z,97488.31
2023-02-12T15:25:14.702Z,97487.72
2023-02-12T15:27:45.013Z,97487.50
2023-02-12T15:30:25.650Z,97485.69
2023-02-12T15:32:53.122Z,97485.84
2023-02-12T15:35:25.114Z,97486.09
2023-02-12T15:37:51.676Z,97487.53
2023-02-12T15:40:18.412Z,97489.91
2023-02-12T15:42:52.711Z,97491.56
2023-02-12T15:45:23.380Z,97499.53
2023-02-12T15:47:59.125Z,97507.88
2023-02-12T15:50:25.801Z,97517.03
2023-02-12T15:52:53.029Z,97505.72
2023-02-12T15:55:28.720Z,97500.16
2023-02-12T15:57:56.332Z,97510.84
2023-02-12T16:00:42.624Z,97513.50
2023-02-12T16:03:23.200Z,97508.47
2023-02-12T16:05:50.353Z,97509.91
2023-02-12T16:08:18.990Z,97514.16
2023-02-12T16:10:48.038Z,97520.47
2023-02-12T16:13:17.976Z,97526.28
2023-02-12T16:15:46.395Z,97528.31
2023-02-12T16:18:26.271Z,97536.75
2023-02-12T16:21:03.200Z,97538.03
2023-02-12T16:23:29.667Z,97538.16
2023-02-12T16:25:56.494Z,97538.53
2023-02-12T16:28:26.551Z,97538.72
2023-02-12T16:30:53.528Z,97539.81
2023-02-12T16:33:34.172Z,97540.75
2023-02-12T16:36:01.573Z,97542.38
2023-02-12T16:38:30.788Z,97549.84
2023-02-12T16:41:16.099Z,97542.97
2023-02-12T16:43:42.536Z,97559.19
2023-02-12T16:46:09.555Z,97559.53
2023-02-12T16:48:43.727Z,97558.94
2023-02-12T16:51:21.310Z,97555.84
2023-02-12T16:53:49.296Z,97559.59
2023-02-12T16:56:21.163Z,97555.34
2023-02-12T16:58:52.737Z,97567.91
2023-02-12T17:01:21.110Z,97560.72
2023-02-12T17:03:50.415Z,97568.78
2023-02-12T17:06:17.985Z,97572.34
2023-02-12T17:08:44.531Z,97571.63
2023-02-12T17:11:11.099Z,97573.75
2023-02-12T17:13:37.516Z,97574.06
2023-02-12T17:16:04.454Z,97572.75
2023-02-12T17:18:32.879Z,97574.84
2023-02-12T17:21:00.774Z,97574.13
2023-02-12T17:23:27.698Z,97571.94
2023-02-12T17:25:54.568Z,97574.75
2023-02-12T17:28:22.985Z,97574.03
2023-02-12T17:30:49.489Z,97570.00
2023-02-12T17:33:16.092Z,97567.56
2023-02-12T17:35:42.575Z,97562.81
2023-02-12T17:38:09.043Z,97574.50
2023-02-12T17:40:36.560Z,97568.78
2023-02-12T17:43:03.611Z,97573.47
2023-02-12T17:45:30.411Z,97581.84
2023-02-12T17:47:57.344Z,97577.56
2023-02-12T17:50:24.374Z,97580.38
2023-02-12T17:52:50.989Z,97581.41
2023-02-12T17:55:17.830Z,97576.53
2023-02-12T17:57:44.264Z,97577.88
2023-02-12T18:00:13.134Z,97575.59
2023-02-12T18:02:39.631Z,97580.19
2023-02-12T18:05:06.244Z,97590.84
2023-02-12T18:07:33.680Z,97591.25
2023-02-12T18:10:00.206Z,97587.31
2023-02-12T18:12:26.678Z,97591.88
2023-02-12T18:14:56.479Z,97583.53
2023-02-12T18:17:22.924Z,97577.81
2023-02-12T18:19:49.363Z,97576.34
2023-02-12T18:22:15.805Z,97570.38
2023-02-12T18:24:44.198Z,97576.34
2023-02-12T18:27:11.103Z,97566.84
2023-02-12T18:29:37.582Z,97558.50
2023-02-12T18:32:04.298Z,97545.78
2023-02-12T18:34:30.761Z,97548.81
2023-02-12T18:36:57.712Z,97560.47
2023-02-12T18:39:24.164Z,97555.59
2023-02-12T18:41:50.637Z,97552.25
2023-02-12T18:44:17.080Z,97556.06
2023-02-12T18:46:44.497Z,97551.91
2023-02-12T18:49:11.916Z,97559.91
2023-02-12T18:51:40.988Z,97564.09
2023-02-12T18:54:08.787Z,97568.56
2023-02-12T18:56:36.626Z,97564.69
2023-02-12T18:59:04.889Z,97559.91
2023-02-12T19:01:32.434Z,97565.28
2023-02-12T19:04:00.584Z,97565.50
2023-02-12T19:06:27.547Z,97580.47
2023-02-12T19:08:57.912Z,97578.91
2023-02-12T19:11:24.789Z,97586.09
2023-02-12T19:13:51.273Z,97581.91
2023-02-12T19:16:18.881Z,97573.56
2023-02-12T19:18:48.229Z,97572.09
2023-02-12T19:21:16.338Z,97579.16
2023-02-12T19:23:42.787Z,97582.88
2023-02-12T19:26:10.285Z,97576.94
2023-02-12T19:28:38.598Z,97583.09
2023-02-12T19:31:14.303Z,97589.41
2023-02-12T19:33:42.209Z,97581.69
2023-02-12T19:36:09.637Z,97579.59
2023-02-12T19:38:36.293Z,97581.66
2023-02-12T19:41:04.537Z,97579.22
2023-02-12T19:43:31.024Z,97589.19
2023-02-12T19:46:01.637Z,97586.78
2023-02-12T19:48:28.112Z,97588.94
2023-02-12T19:50:54.994Z,97584.03
2023-02-12T19:53:22.220Z,97596.19
2023-02-12T19:55:48.658Z,97595.44
2023-02-12T19:58:15.174Z,97593.84
2023-02-12T20:00:41.684Z,97588.94
2023-02-12T20:03:08.442Z,97588.94
2023-02-12T20:05:35.172Z,97588.19
2023-02-12T20:08:01.809Z,97591.75
2023-02-12T20:10:28.808Z,97595.44
2023-02-12T20:12:55.681Z,97582.75
2023-02-12T20:15:25.522Z,97597.78
2023-02-12T20:17:52.400Z,97602.13
2023-02-12T20:20:19.355Z,97596.19
2023-02-12T20:22:46.225Z,97599.94
2023-02-12T20:25:12.797Z,97608.06
2023-02-12T20:27:39.321Z,97608.75
2023-02-12T20:30:06.285Z,97610.69
2023-02-12T20:32:34.215Z,97625.31
2023-02-12T20:35:00.788Z,97621.97
2023-02-12T20:37:27.296Z,97619.47
2023-02-12T20:39:53.743Z,97612.78
2023-02-12T20:42:20.310Z,97614.56
2023-02-12T20:44:46.876Z,97609.28
2023-02-12T20:47:13.468Z,97610.28
2023-02-12T20:49:40.002Z,97601.03
2023-02-12T20:52:06.764Z,97608.69
2023-02-12T20:54:33.308Z,97607.66
2023-02-12T20:56:59.901Z,97611.00
2023-02-12T20:59:26.605Z,97592.81
2023-02-12T21:01:53.182Z,97598.00
2023-02-12T21:04:19.638Z,97599.00
2023-02-12T21:06:47.521Z,97605.22
2023-02-12T21:09:14.713Z,97607.09
2023-02-12T21:11:42.232Z,97609.84
2023-02-12T21:14:25.053Z,97604.56
2023-02-12T21:16:55.522Z,97599.38
2023-02-12T21:19:22.393Z,97590.66
2023-02-12T21:21:48.864Z,97592.41
2023-02-12T21:24:17.127Z,97597.16
2023-02-12T21:26:43.608Z,97597.13
2023-02-12T21:29:10.098Z,97603.19
2023-02-12T21:31:38.365Z,97600.53
2023-02-12T21:34:06.301Z,97595.19
2023-02-12T21:36:37.039Z,97598.25
2023-02-12T21:39:04.671Z,97592.69
2023-02-12T21:41:32.356Z,97594.44
2023-02-12T21:43:59.915Z,97596.31
2023-02-12T21:46:27.355Z,97587.69
2023-02-12T21:48:54.041Z,97582.69
2023-02-12T21:51:20.434Z,97583.84
2023-02-12T21:53:47.609Z,97596.09
2023-02-12T21:56:14.519Z,97592.72
2023-02-12T21:58:41.063Z,97595.41
2023-02-12T22:01:11.606Z,97600.53
2023-02-12T22:03:38.256Z,97609.81
2023-02-12T22:06:05.991Z,97608.16
2023-02-12T22:08:32.893Z,97618.34
2023-02-12T22:11:01.799Z,97617.69
2023-02-12T22:13:29.414Z,97617.88
2023-02-12T22:15:55.976Z,97624.91
2023-02-12T22:18:22.415Z,97628.31
2023-02-12T22:20:48.850Z,97618.03
2023-02-12T22:23:15.308Z,97620.72
2023-02-12T22:25:41.721Z,97620.88
2023-02-12T22:28:08.258Z,97618.56
2023-02-12T22:30:34.672Z,97611.94
2023-02-12T22:33:01.275Z,97616.56
2023-02-12T22:35:27.720Z,97623.59
2023-02-12T22:37:54.145Z,97611.72
2023-02-12T22:40:20.666Z,97617.06
2023-02-12T22:42:47.106Z,97618.00
2023-02-12T22:45:13.544Z,97625.88
2023-02-12T22:47:39.969Z,97619.94
2023-02-12T22:50:06.811Z,97627.22
2023-02-12T22:52:33.324Z,97627.44
2023-02-12T22:54:59.752Z,97626.78
2023-02-12T22:57:26.189Z,97635.66
2023-02-12T22:59:52.607Z,97634.16
2023-02-12T23:02:19.173Z,97637.84
2023-02-12T23:04:45.589Z,97626.91
2023-02-12T23:07:12.075Z,97626.13
2023-02-12T23:09:38.574Z,97625.28
2023-02-12T23:12:07.547Z,97632.81
2023-02-12T23:14:36.055Z,97635.34
2023-02-12T23:17:05.327Z,97644.00
2023-02-12T23:19:31.936Z,97635.56
2023-02-12T23:21:59.258Z,97640.91
2023-02-12T23:24:25.939Z,97647.69
2023-02-12T23:26:53.196Z,97646.50
2023-02-12T23:29:19.705Z,97648.44
2023-02-12T23:31:46.233Z,97646.34
2023-02-12T23:34:12.783Z,97641.16
2023-02-12T23:36:39.206Z,97648.47
2023-02-12T23:39:06.021Z,97656.19
2023-02-12T23:41:32.775Z,97651.16
2023-02-12T23:43:59.199Z,97641.63
2023-02-12T23:46:25.671Z,97640.56
2023-02-12T23:48:52.116Z,97647.31
2023-02-12T23:51:18.566Z,97637.72
2023-02-12T23:53:45.060Z,97634.28
2023-02-12T23:56:11.556Z,97641.34
2023-02-12T23:58:37.968Z,97640.66
